createdAt,value
2018-02-16T00:01:56.995Z,23.70
2018-02-16T00:04:25.744Z,23.43
2018-02-16T00:06:53.736Z,26.60
2018-02-16T00:09:21.880Z,25.03
2018-02-16T00:11:49.928Z,26.33
2018-02-16T00:14:17.938Z,26.53
2018-02-16T00:16:46.191Z,25.10
2018-02-16T00:19:14.197Z,26.10
2018-02-16T00:21:43.246Z,27.00
2018-02-16T00:24:11.385Z,26.00
2018-02-16T00:26:39.398Z,30.30
2018-02-16T00:29:07.408Z,28.57
2018-02-16T00:31:35.669Z,27.13
2018-02-16T00:34:03.671Z,26.50
2018-02-16T00:36:31.699Z,26.80
2018-02-16T00:38:59.843Z,28.57
2018-02-16T00:41:28.590Z,27.60
2018-02-16T00:43:56.597Z,27.97
2018-02-16T00:46:25.504Z,27.10
2018-02-16T00:48:53.522Z,29.53
2018-02-16T00:51:21.529Z,29.60
2018-02-16T00:53:50.396Z,28.03
2018-02-16T00:56:18.410Z,27.70
2018-02-16T00:58:46.426Z,27.60
2018-02-16T01:01:14.592Z,26.63
2018-02-16T01:03:42.618Z,28.10
2018-02-16T01:06:11.353Z,28.03
2018-02-16T01:08:39.625Z,27.00
2018-02-16T01:11:07.678Z,28.90
2018-02-16T01:13:35.689Z,28.60
2018-02-16T01:16:03.854Z,26.70
2018-02-16T01:18:31.984Z,26.33
2018-02-16T01:21:00.066Z,27.60
2018-02-16T01:23:28.194Z,26.40
2018-02-16T01:25:56.192Z,25.20
2018-02-16T01:28:24.936Z,28.73
2018-02-16T01:30:53.065Z,25.43
2018-02-16T01:33:21.064Z,28.93
2018-02-16T01:35:49.056Z,27.80
2018-02-16T01:38:17.180Z,27.60
2018-02-16T01:40:45.265Z,26.40
2018-02-16T01:43:13.264Z,28.60
2018-02-16T01:45:41.414Z,27.27
2018-02-16T01:48:09.430Z,25.87
2018-02-16T01:50:37.438Z,26.67
2018-02-16T01:53:06.322Z,27.60
2018-02-16T01:55:35.086Z,25.60
2018-02-16T01:58:03.099Z,27.47
2018-02-16T02:00:31.232Z,28.83
2018-02-16T02:02:59.231Z,26.53
2018-02-16T02:05:27.978Z,27.57
2018-02-16T02:07:56.114Z,26.80
2018-02-16T02:10:24.153Z,27.97
2018-02-16T02:12:52.895Z,28.80
2018-02-16T02:15:21.270Z,28.80
2018-02-16T02:17:49.268Z,27.03
2018-02-16T02:20:17.428Z,27.40
2018-02-16T02:22:45.569Z,29.17
2018-02-16T02:25:13.576Z,27.37
2018-02-16T02:27:41.591Z,28.10
2018-02-16T02:30:10.462Z,26.33
2018-02-16T02:32:38.491Z,27.73
2018-02-16T02:35:06.502Z,26.93
2018-02-16T02:37:34.628Z,27.00
2018-02-16T02:40:02.647Z,26.30
2018-02-16T02:42:30.763Z,25.67
2018-02-16T02:44:58.904Z,25.93
2018-02-16T02:47:26.896Z,24.47
2018-02-16T02:49:55.650Z,25.93
2018-02-16T02:52:23.782Z,24.80
2018-02-16T02:54:51.788Z,25.73
2018-02-16T02:57:19.783Z,24.50
2018-02-16T02:59:47.937Z,26.10
2018-02-16T03:02:15.946Z,26.33
2018-02-16T03:04:44.710Z,25.93
2018-02-16T03:07:12.871Z,24.70
2018-02-16T03:09:40.877Z,25.43
2018-02-16T03:12:09.681Z,25.20
2018-02-16T03:14:37.812Z,25.40
2018-02-16T03:17:05.819Z,25.60
2018-02-16T03:19:34.582Z,26.03
2018-02-16T03:22:02.948Z,26.03
2018-02-16T03:24:30.959Z,26.30
2018-02-16T03:26:59.700Z,28.13
2018-02-16T03:29:27.831Z,27.20
2018-02-16T03:31:55.915Z,28.53
2018-02-16T03:34:23.912Z,27.00
2018-02-16T03:36:52.041Z,26.90
2018-02-16T03:39:20.786Z,27.40
2018-02-16T03:41:48.820Z,25.77
2018-02-16T03:44:16.952Z,26.97
2018-02-16T03:46:44.964Z,28.23
2018-02-16T03:49:12.972Z,27.30
2018-02-16T03:51:41.124Z,26.87
2018-02-16T03:54:09.133Z,25.20
2018-02-16T03:56:37.154Z,26.20
2018-02-16T03:59:05.293Z,25.77
2018-02-16T04:01:34.118Z,26.57
2018-02-16T04:04:02.127Z,26.90
2018-02-16T04:06:30.265Z,25.07
2018-02-16T04:08:58.320Z,25.67
2018-02-16T04:11:41.940Z,26.37
2018-02-16T04:14:16.104Z,25.93
2018-02-16T04:16:44.366Z,25.20
2018-02-16T04:19:12.383Z,26.13
2018-02-16T04:21:40.530Z,25.43
2018-02-16T04:24:08.807Z,22.70
2018-02-16T04:26:36.803Z,24.87
2018-02-16T04:29:04.809Z,25.10
2018-02-16T04:31:33.754Z,26.63
2018-02-16T04:34:01.776Z,23.23
2018-02-16T04:36:30.530Z,25.30
2018-02-16T04:38:58.673Z,24.40
2018-02-16T04:41:26.743Z,22.90
2018-02-16T04:43:54.744Z,23.50
2018-02-16T04:46:22.886Z,23.90
2018-02-16T04:48:50.908Z,25.60
2018-02-16T04:51:19.042Z,24.13
2018-02-16T04:53:47.164Z,24.57
2018-02-16T04:56:15.912Z,26.80
2018-02-16T04:58:43.913Z,24.20
2018-02-16T05:01:12.042Z,23.40
2018-02-16T05:03:40.036Z,24.27
2018-02-16T05:06:08.032Z,23.10
2018-02-16T05:08:36.171Z,24.70
2018-02-16T05:11:04.190Z,24.77
2018-02-16T05:13:32.937Z,24.60
2018-02-16T05:16:01.064Z,25.57
2018-02-16T05:18:29.808Z,25.57
2018-02-16T05:20:57.850Z,23.53
2018-02-16T05:23:26.002Z,24.40
2018-02-16T05:25:54.890Z,23.60
2018-02-16T05:28:23.629Z,21.20
2018-02-16T05:30:51.767Z,21.50
2018-02-16T05:33:19.777Z,21.53
2018-02-16T05:35:47.780Z,21.27
2018-02-16T05:38:16.651Z,21.20
2018-02-16T05:40:44.648Z,20.40
2018-02-16T05:43:13.402Z,19.00
2018-02-16T05:45:41.532Z,16.70
2018-02-16T05:48:10.358Z,15.03
2018-02-16T05:50:38.364Z,16.43
2018-02-16T05:53:07.274Z,15.27
2018-02-16T05:55:36.106Z,15.57
2018-02-16T05:58:04.117Z,14.03
2018-02-16T06:00:32.288Z,16.13
2018-02-16T06:03:00.317Z,15.80
2018-02-16T06:05:28.337Z,16.50
2018-02-16T06:07:56.464Z,16.27
2018-02-16T06:10:24.476Z,15.70
2018-02-16T06:12:52.848Z,14.80
2018-02-16T06:15:20.986Z,15.90
2018-02-16T06:17:48.989Z,13.33
2018-02-16T06:20:17.033Z,13.63
2018-02-16T06:22:45.188Z,16.20
2018-02-16T06:25:13.184Z,14.23
2018-02-16T06:27:41.307Z,15.47
2018-02-16T06:30:10.176Z,15.37
2018-02-16T06:45:35.558Z,14.87
2018-02-16T06:48:03.555Z,14.63
2018-02-16T06:50:31.550Z,14.50
2018-02-16T06:53:00.429Z,13.53
2018-02-16T06:55:29.178Z,14.27
2018-02-16T06:57:57.168Z,16.47
2018-02-16T07:00:25.312Z,14.37
2018-02-16T07:02:53.313Z,14.47
2018-02-16T07:05:21.323Z,15.37
2018-02-16T07:07:50.217Z,15.23
2018-02-16T07:10:19.137Z,14.60
2018-02-16T07:12:47.145Z,14.53
2018-02-16T07:15:15.290Z,14.30
2018-02-16T07:17:43.302Z,14.13
2018-02-16T07:20:12.694Z,13.80
2018-02-16T07:22:40.962Z,15.73
2018-02-16T07:25:08.970Z,15.00
2018-02-16T07:27:37.860Z,14.40
2018-02-16T07:30:06.973Z,15.13
2018-02-16T07:32:35.724Z,14.67
2018-02-16T07:35:03.785Z,14.20
2018-02-16T07:37:31.934Z,14.13
2018-02-16T07:39:59.945Z,14.73
2018-02-16T07:42:27.954Z,14.23
2018-02-16T07:44:56.178Z,15.47
2018-02-16T07:47:24.445Z,16.23
2018-02-16T07:49:52.678Z,17.23
2018-02-16T07:52:20.907Z,16.00
2018-02-16T07:54:48.910Z,15.03
2018-02-16T07:57:17.673Z,14.83
2018-02-16T07:59:45.809Z,15.43
2018-02-16T08:02:13.878Z,15.50
2018-02-16T08:04:41.887Z,16.30
2018-02-16T08:07:10.004Z,15.33
2018-02-16T08:09:38.753Z,15.50
2018-02-16T08:12:06.881Z,16.77
2018-02-16T08:14:35.030Z,17.40
2018-02-16T08:17:03.792Z,15.90
2018-02-16T08:19:31.805Z,15.60
2018-02-16T08:22:00.737Z,15.27
2018-02-16T08:24:28.732Z,19.00
2018-02-16T08:26:56.731Z,15.83
2018-02-16T08:29:25.597Z,16.60
2018-02-16T08:31:53.818Z,17.10
2018-02-16T08:34:21.836Z,20.33
2018-02-16T08:36:49.982Z,18.07
2018-02-16T08:39:17.994Z,20.10
2018-02-16T08:41:46.104Z,20.13
2018-02-16T08:44:14.232Z,20.33
2018-02-16T08:46:42.407Z,22.03
2018-02-16T08:49:10.418Z,20.60
2018-02-16T08:51:39.362Z,21.93
2018-02-16T08:54:07.370Z,21.40
2018-02-16T08:56:36.117Z,21.70
2018-02-16T08:59:04.262Z,20.67
2018-02-16T09:01:32.257Z,20.70
2018-02-16T09:04:00.232Z,22.37
2018-02-16T09:06:28.368Z,20.60
2018-02-16T09:08:56.402Z,20.77
2018-02-16T09:11:24.529Z,22.43
2018-02-16T09:13:52.662Z,21.50
2018-02-16T09:16:21.411Z,21.53
2018-02-16T09:18:49.404Z,21.23
2018-02-16T09:21:17.549Z,21.27
2018-02-16T09:23:45.546Z,21.10
2018-02-16T09:26:13.561Z,19.40
2018-02-16T09:28:42.437Z,18.30
2018-02-16T09:31:11.188Z,18.30
2018-02-16T09:33:39.333Z,18.83
2018-02-16T09:36:09.190Z,19.17
2018-02-16T09:38:37.200Z,20.77
2018-02-16T09:41:05.208Z,19.60
2018-02-16T09:43:33.328Z,18.60
2018-02-16T09:46:02.082Z,19.90
2018-02-16T09:48:30.076Z,18.43
2018-02-16T09:50:58.211Z,20.00
2018-02-16T09:53:26.212Z,20.47
2018-02-16T09:55:54.230Z,19.60
2018-02-16T09:58:22.503Z,18.87
2018-02-16T10:00:50.585Z,18.60
2018-02-16T10:03:18.583Z,20.80
2018-02-16T10:05:46.714Z,18.27
2018-02-16T10:08:15.474Z,19.43
2018-02-16T10:10:43.502Z,19.57
2018-02-16T10:13:11.687Z,20.57
2018-02-16T10:15:39.713Z,20.33
2018-02-16T10:18:08.579Z,21.47
2018-02-16T10:20:36.730Z,20.70
2018-02-16T10:23:04.736Z,19.20
2018-02-16T10:25:32.746Z,18.73
2018-02-16T10:28:00.872Z,17.40
2018-02-16T10:30:28.880Z,18.90
2018-02-16T10:32:56.970Z,18.83
2018-02-16T10:35:25.105Z,18.30
2018-02-16T10:37:53.865Z,18.23
2018-02-16T10:40:21.868Z,16.77
2018-02-16T10:42:50.758Z,16.80
2018-02-16T10:45:19.515Z,16.30
2018-02-16T10:47:47.530Z,17.97
2018-02-16T10:50:16.412Z,18.00
2018-02-16T10:52:45.168Z,16.67
2018-02-16T10:55:13.174Z,17.50
2018-02-16T10:57:42.033Z,17.17
2018-02-16T11:00:10.360Z,15.43
2018-02-16T11:02:54.884Z,16.47
2018-02-16T11:05:34.504Z,15.40
2018-02-16T14:18:35.910Z,21.60
2018-02-16T14:21:07.217Z,25.47
2018-02-16T14:23:37.152Z,24.60
2018-02-16T14:26:06.922Z,22.67
2018-02-16T14:28:35.619Z,23.20
2018-02-16T14:31:04.605Z,22.13
2018-02-16T14:33:32.716Z,21.77
2018-02-16T14:36:00.729Z,21.73
2018-02-16T14:38:29.373Z,22.80
2018-02-16T14:40:57.948Z,23.73
2018-02-16T14:43:25.968Z,22.60
2018-02-16T14:45:54.108Z,21.90
2018-02-16T14:48:25.618Z,20.93
2018-02-16T14:50:55.420Z,21.90
2018-02-16T14:53:23.423Z,22.10
2018-02-16T14:55:51.432Z,21.77
2018-02-16T14:58:20.296Z,25.10
2018-02-16T15:00:48.423Z,24.53
2018-02-16T15:03:16.470Z,23.47
2018-02-16T15:05:45.347Z,24.70
2018-02-16T15:08:13.352Z,26.10
2018-02-16T15:10:41.357Z,23.83
2018-02-16T15:13:09.527Z,24.23
2018-02-16T15:15:37.542Z,25.20
2018-02-16T15:18:05.544Z,23.83
2018-02-16T15:20:33.677Z,25.90
2018-02-16T15:23:01.696Z,26.30
2018-02-16T15:25:29.704Z,25.53
2018-02-16T15:27:57.882Z,25.47
2018-02-16T15:30:25.880Z,24.77
2018-02-16T15:32:54.637Z,26.43
2018-02-16T15:35:22.770Z,26.60
2018-02-16T15:37:50.794Z,27.23
2018-02-16T15:40:18.929Z,28.57
2018-02-16T15:42:47.070Z,27.20
2018-02-16T15:45:15.819Z,28.40
2018-02-16T15:47:43.827Z,27.40
2018-02-16T15:50:12.737Z,29.23
2018-02-16T15:52:41.548Z,27.47
2018-02-16T15:55:09.555Z,26.70
2018-02-16T15:57:37.706Z,28.53
2018-02-16T16:00:05.734Z,28.10
2018-02-16T16:02:34.554Z,28.87
2018-02-16T16:05:02.706Z,27.53
2018-02-16T16:07:31.462Z,29.77
2018-02-16T16:09:59.470Z,30.57
2018-02-16T16:12:28.731Z,32.50
2018-02-16T16:14:59.694Z,31.77
2018-02-16T16:17:28.444Z,32.80
2018-02-16T16:19:56.573Z,28.70
2018-02-16T16:22:24.602Z,29.20
2018-02-16T16:24:52.613Z,30.43
2018-02-16T16:27:21.504Z,30.60
2018-02-16T16:29:50.279Z,27.90
2018-02-16T16:32:19.094Z,29.83
2018-02-16T16:34:47.230Z,28.13
2018-02-16T16:37:15.992Z,29.57
2018-02-16T16:39:44.024Z,31.23
2018-02-16T16:42:12.351Z,30.80
2018-02-16T16:44:40.366Z,29.33
2018-02-16T16:47:09.125Z,28.10
2018-02-16T16:49:37.247Z,31.63
2018-02-16T16:52:05.374Z,33.27
2018-02-16T16:54:33.382Z,37.00
2018-02-16T16:57:01.520Z,40.83
2018-02-16T16:59:29.531Z,39.60
2018-02-16T17:01:57.621Z,35.43
2018-02-16T17:04:25.761Z,32.50
2018-02-16T17:06:54.535Z,31.50
2018-02-16T17:09:22.542Z,30.43
2018-02-16T17:11:50.756Z,32.37
2018-02-16T17:14:18.755Z,32.20
2018-02-16T17:16:46.787Z,31.23
2018-02-16T17:19:14.934Z,32.43
2018-02-16T17:21:43.008Z,31.10
2018-02-16T17:24:11.018Z,30.67
2018-02-16T17:26:39.169Z,32.20
2018-02-16T17:29:07.250Z,30.90
2018-02-16T17:31:35.293Z,31.33
2018-02-16T17:34:03.449Z,31.50
2018-02-16T17:36:32.218Z,28.67
2018-02-16T17:39:00.253Z,29.30
2018-02-16T17:41:28.433Z,29.37
2018-02-16T17:43:56.598Z,33.50
2018-02-16T17:46:24.614Z,30.50
2018-02-16T17:48:52.878Z,33.43
2018-02-16T17:51:21.040Z,35.40
2018-02-16T17:53:49.064Z,34.23
2018-02-16T17:56:17.931Z,33.00
2018-02-16T17:58:45.946Z,32.20
2018-02-16T18:01:14.049Z,32.17
2018-02-16T18:03:42.265Z,29.87
2018-02-16T18:06:11.060Z,29.90
2018-02-16T18:08:39.117Z,30.40
2018-02-16T18:11:07.296Z,29.40
2018-02-16T18:13:35.326Z,28.13
2018-02-16T18:16:03.383Z,28.90
2018-02-16T18:18:31.525Z,28.70
2018-02-16T18:21:00.272Z,27.10
2018-02-16T18:23:28.308Z,28.50
2018-02-16T18:25:56.443Z,30.93
2018-02-16T18:28:24.444Z,27.10
2018-02-16T18:30:53.261Z,27.63
2018-02-16T18:33:21.400Z,25.30
2018-02-16T18:35:50.155Z,25.70
2018-02-16T18:38:18.265Z,25.40
2018-02-16T18:40:47.161Z,25.20
2018-02-16T18:43:15.992Z,26.60
2018-02-16T18:45:44.142Z,26.10
2018-02-16T18:48:12.270Z,25.90
2018-02-16T18:50:40.261Z,24.23
2018-02-16T18:53:09.019Z,25.60
2018-02-16T18:55:37.151Z,24.73
2018-02-16T18:58:05.194Z,24.00
2018-02-16T19:00:33.965Z,24.30
2018-02-16T19:03:02.101Z,25.53
2018-02-16T19:05:30.096Z,24.80
2018-02-16T19:07:58.111Z,23.90
2018-02-16T19:10:26.992Z,24.30
2018-02-16T19:12:55.733Z,23.57
2018-02-16T19:15:23.746Z,22.60
2018-02-16T19:17:52.638Z,23.70
2018-02-16T19:20:21.449Z,23.03
2018-02-16T19:22:50.192Z,22.60
2018-02-16T19:25:18.338Z,22.03
2018-02-16T19:27:46.340Z,23.57
2018-02-16T19:30:14.358Z,25.20
2018-02-16T19:32:42.506Z,23.10
2018-02-16T19:35:11.469Z,23.53
2018-02-16T19:37:39.640Z,24.13
2018-02-16T19:40:07.843Z,21.50
2018-02-16T19:42:35.860Z,21.70
2018-02-16T19:45:03.922Z,20.53
2018-02-16T19:47:32.078Z,22.37
2018-02-16T19:50:00.860Z,21.90
2018-02-16T19:52:29.672Z,21.50
2018-02-16T19:54:57.792Z,23.93
2018-02-16T19:57:25.810Z,23.43
2018-02-16T19:59:54.856Z,22.80
2018-02-16T20:02:23.364Z,22.10
2018-02-16T20:04:51.380Z,22.70
2018-02-16T20:07:19.404Z,21.90
2018-02-16T20:09:47.616Z,24.07
2018-02-16T20:12:15.684Z,22.80
2018-02-16T20:14:44.582Z,21.40
2018-02-16T20:17:12.726Z,23.10
2018-02-16T20:19:41.484Z,25.53
2018-02-16T20:22:09.535Z,23.00
2018-02-16T20:24:37.690Z,26.03
2018-02-16T20:27:05.680Z,24.60
2018-02-16T20:29:33.685Z,26.27
2018-02-16T20:32:01.942Z,25.53
2018-02-16T20:34:29.936Z,25.90
2018-02-16T20:36:57.927Z,27.30
2018-02-16T20:39:26.794Z,27.00
2018-02-16T20:41:54.912Z,24.43
2018-02-16T20:44:23.667Z,25.10
2018-02-16T20:46:51.826Z,26.80
2018-02-16T20:49:19.968Z,25.50
2018-02-16T20:51:48.180Z,28.93
2018-02-16T20:54:16.309Z,25.27
2018-02-16T20:56:44.330Z,25.27
2018-02-16T20:59:12.354Z,27.17
2018-02-16T21:01:40.545Z,27.00
2018-02-16T21:04:08.551Z,27.37
2018-02-16T21:06:36.722Z,27.03
2018-02-16T21:09:05.118Z,27.77
2018-02-16T21:11:33.230Z,27.63
2018-02-16T21:14:01.242Z,29.07
2018-02-16T21:16:29.369Z,29.13
2018-02-16T21:18:57.398Z,30.60
2018-02-16T21:21:25.532Z,27.70
2018-02-16T21:23:53.665Z,27.47
2018-02-16T21:26:22.417Z,28.33
2018-02-16T21:28:50.422Z,28.90
2018-02-16T21:31:18.562Z,29.47
2018-02-16T21:46:38.217Z,27.10
2018-02-16T21:49:06.219Z,26.90
2018-02-16T21:51:34.378Z,24.70
2018-02-16T21:54:02.492Z,27.30
2018-02-16T21:56:31.278Z,25.23
2018-02-16T21:59:00.032Z,26.80
2018-02-16T22:01:28.192Z,25.40
2018-02-16T22:03:56.196Z,26.23
2018-02-16T22:06:24.217Z,25.43
2018-02-16T22:08:52.340Z,24.33
2018-02-16T22:11:20.332Z,24.47
2018-02-16T22:13:48.382Z,24.43
2018-02-16T22:16:16.519Z,24.17
2018-02-16T22:18:44.538Z,24.60
2018-02-16T22:21:12.540Z,23.93
2018-02-16T22:23:41.406Z,23.93
2018-02-16T22:26:09.556Z,24.07
2018-02-16T22:28:37.555Z,23.90
2018-02-16T22:31:06.520Z,24.30
2018-02-16T22:33:34.533Z,24.00
2018-02-16T22:36:03.269Z,21.27
2018-02-16T22:38:31.399Z,23.90
2018-02-16T22:41:00.146Z,24.10
2018-02-16T22:43:28.178Z,24.60
2018-02-16T22:45:56.314Z,23.50
2018-02-16T22:48:24.312Z,24.53
2018-02-16T22:50:52.307Z,24.37
2018-02-16T22:53:20.568Z,23.27
2018-02-16T22:55:48.734Z,25.20
2018-02-16T22:58:16.746Z,24.60
2018-02-16T23:00:44.886Z,24.37
2018-02-16T23:03:12.893Z,23.30
2018-02-16T23:05:40.884Z,24.17
2018-02-16T23:08:09.011Z,25.30
2018-02-16T23:10:37.005Z,22.43
2018-02-16T23:13:05.008Z,24.60
2018-02-16T23:15:33.144Z,25.00
2018-02-16T23:18:01.160Z,23.53
2018-02-16T23:20:29.900Z,23.50
2018-02-16T23:22:58.033Z,25.30
2018-02-16T23:25:26.772Z,22.30
2018-02-16T23:27:54.781Z,24.40
2018-02-16T23:30:22.917Z,24.50
2018-02-16T23:32:50.917Z,25.50
2018-02-16T23:35:18.924Z,25.37
2018-02-16T23:37:47.047Z,25.50
2018-02-16T23:40:15.052Z,25.63
2018-02-16T23:42:43.740Z,24.97
2018-02-16T23:45:11.877Z,24.37
2018-02-16T23:47:40.614Z,24.27
2018-02-16T23:50:08.643Z,25.47
2018-02-16T23:52:36.784Z,25.93
2018-02-16T23:55:04.939Z,24.53
2018-02-16T23:57:33.110Z,24.27
